Time;durP1;ratioP1;P1;durP2;ratioP2;P2;SDS_P1;SDS_P2;PMS_P1;PMS_P2;Temp;Humidity;BMP_temperature;BMP_pressure;BME280_temperature;BME280_humidity;BME280_pressure;Samples;Min_cycle;Max_cycle;Signal;HPM_P1;HPM_P2
2023/07/28 00:00:57;;;;;;;3.60;2.47;;;;;;;;;;4918522;29;20063;-79
2023/07/28 00:03:24;;;;;;;2.92;2.63;;;;;;;;;;4909820;29;20063;-80
2023/07/28 00:05:54;;;;;;;4.43;2.70;;;;;;;;;;4913666;29;20425;-80
2023/07/28 00:08:21;;;;;;;5.72;3.08;;;;;;;;;;4927906;29;20063;-80
2023/07/28 00:10:50;;;;;;;4.15;3.20;;;;;;;;;;4922280;29;20418;-80
2023/07/28 00:13:20;;;;;;;4.13;3.03;;;;;;;;;;4902650;29;20524;-80
2023/07/28 00:15:47;;;;;;;4.20;2.97;;;;;;;;;;4922456;29;20067;-80
2023/07/28 00:18:18;;;;;;;3.08;2.75;;;;;;;;;;4916236;29;20050;-80
2023/07/28 00:20:48;;;;;;;3.00;2.70;;;;;;;;;;4935149;29;20075;-80
2023/07/28 00:23:17;;;;;;;4.53;2.83;;;;;;;;;;4922158;29;20055;-80
2023/07/28 00:25:45;;;;;;;3.75;2.58;;;;;;;;;;4915347;29;20498;-80
2023/07/28 00:28:14;;;;;;;5.95;2.55;;;;;;;;;;4938044;29;20052;-80
2023/07/28 00:30:44;;;;;;;9.73;3.25;;;;;;;;;;4913223;29;20082;-80
2023/07/28 00:33:11;;;;;;;4.15;3.03;;;;;;;;;;4906836;29;20058;-80
2023/07/28 00:35:40;;;;;;;2.53;2.33;;;;;;;;;;4911957;29;20052;-80
2023/07/28 00:38:10;;;;;;;4.50;2.85;;;;;;;;;;4908067;29;20106;-80
2023/07/28 00:40:39;;;;;;;3.20;2.75;;;;;;;;;;4910569;29;20063;-80
2023/07/28 00:43:07;;;;;;;4.97;3.25;;;;;;;;;;4909044;29;20071;-80
2023/07/28 00:45:36;;;;;;;3.38;3.08;;;;;;;;;;4908332;29;20067;-80
2023/07/28 00:48:12;;;;;;;4.55;2.75;;;;;;;;;;4901021;29;20052;-80
2023/07/28 00:50:43;;;;;;;3.85;2.90;;;;;;;;;;4924326;29;20433;-80
2023/07/28 00:53:10;;;;;;;3.30;2.75;;;;;;;;;;4909091;29;20054;-80
2023/07/28 00:55:38;;;;;;;3.03;2.50;;;;;;;;;;4907844;29;20063;-81
2023/07/28 00:58:05;;;;;;;4.07;3.05;;;;;;;;;;4909489;29;20048;-80
2023/07/28 01:00:35;;;;;;;9.45;4.40;;;;;;;;;;4920157;29;20059;-80
2023/07/28 01:03:03;;;;;;;4.68;3.15;;;;;;;;;;4902431;29;20067;-80
2023/07/28 01:05:37;;;;;;;5.63;3.13;;;;;;;;;;4913292;29;20062;-80
2023/07/28 01:08:11;;;;;;;3.40;2.88;;;;;;;;;;4938829;29;20533;-80
2023/07/28 01:10:39;;;;;;;7.40;3.90;;;;;;;;;;4922614;29;20052;-80
2023/07/28 01:13:09;;;;;;;2.40;2.20;;;;;;;;;;4903119;29;20058;-79
2023/07/28 01:15:38;;;;;;;4.65;3.05;;;;;;;;;;4918083;29;20051;-80
2023/07/28 01:18:08;;;;;;;4.10;3.20;;;;;;;;;;4906071;29;20059;-79
2023/07/28 01:20:39;;;;;;;4.07;2.90;;;;;;;;;;4902695;29;20452;-79
2023/07/28 01:23:20;;;;;;;4.47;3.28;;;;;;;;;;4919785;29;20058;-80
2023/07/28 01:25:51;;;;;;;4.82;3.22;;;;;;;;;;4931853;29;20059;-80
2023/07/28 01:28:19;;;;;;;5.40;3.63;;;;;;;;;;4920395;29;20054;-80
2023/07/28 01:30:47;;;;;;;4.22;3.33;;;;;;;;;;4898118;29;20495;-80
2023/07/28 01:33:14;;;;;;;5.97;4.25;;;;;;;;;;4919233;29;20047;-79
2023/07/28 01:35:44;;;;;;;4.55;3.85;;;;;;;;;;4919139;29;20048;-80
2023/07/28 01:38:12;;;;;;;6.72;3.40;;;;;;;;;;4917145;29;20058;-80
2023/07/28 01:40:40;;;;;;;4.47;3.63;;;;;;;;;;4898433;29;20054;-80
2023/07/28 01:43:07;;;;;;;5.30;3.60;;;;;;;;;;4903667;29;20055;-80
2023/07/28 01:45:40;;;;;;;3.80;2.97;;;;;;;;;;4903161;29;20432;-81
2023/07/28 01:48:09;;;;;;;4.45;3.88;;;;;;;;;;4924078;29;20379;-80
2023/07/28 01:50:39;;;;;;;7.28;3.78;;;;;;;;;;4912497;29;20055;-80
2023/07/28 01:53:07;;;;;;;4.97;3.45;;;;;;;;;;4922481;29;20067;-80
2023/07/28 01:55:36;;;;;;;3.72;3.15;;;;;;;;;;4927486;29;20509;-80
2023/07/28 01:58:04;;;;;;;4.05;3.03;;;;;;;;;;4906229;29;20044;-80
2023/07/28 02:00:31;;;;;;;4.57;3.33;;;;;;;;;;4911536;29;20062;-80
2023/07/28 02:03:05;;;;;;;4.82;4.30;;;;;;;;;;4919780;29;20051;-80
2023/07/28 02:05:37;;;;;;;4.40;3.75;;;;;;;;;;4920185;29;20078;-80
2023/07/28 02:08:07;;;;;;;4.32;3.85;;;;;;;;;;4904146;29;20501;-81
2023/07/28 02:10:37;;;;;;;5.82;3.30;;;;;;;;;;4909611;29;20486;-81
2023/07/28 02:13:05;;;;;;;4.03;3.58;;;;;;;;;;4918303;29;20044;-81
2023/07/28 02:15:32;;;;;;;6.70;3.92;;;;;;;;;;4926140;29;20058;-81
2023/07/28 02:18:01;;;;;;;5.25;4.53;;;;;;;;;;4909297;29;21010;-80
2023/07/28 02:20:30;;;;;;;5.00;4.50;;;;;;;;;;4911651;29;20062;-81
2023/07/28 02:22:57;;;;;;;3.58;2.70;;;;;;;;;;4943260;29;20050;-80
2023/07/28 02:25:25;;;;;;;9.05;4.28;;;;;;;;;;4909503;29;20063;-80
2023/07/28 02:27:52;;;;;;;6.13;5.53;;;;;;;;;;4921580;29;20055;-80
2023/07/28 02:30:19;;;;;;;4.32;3.50;;;;;;;;;;4932302;29;20059;-80
2023/07/28 02:32:47;;;;;;;4.72;3.40;;;;;;;;;;4926159;29;20051;-80
2023/07/28 02:35:16;;;;;;;4.65;3.50;;;;;;;;;;4926744;29;20054;-80
2023/07/28 02:37:48;;;;;;;5.55;4.45;;;;;;;;;;4907405;29;20059;-80
2023/07/28 02:40:15;;;;;;;4.93;4.13;;;;;;;;;;4925963;29;20043;-80
2023/07/28 02:42:43;;;;;;;4.90;3.47;;;;;;;;;;4908283;29;20067;-80
2023/07/28 02:45:13;;;;;;;5.00;4.47;;;;;;;;;;4941263;29;20055;-80
2023/07/28 02:47:40;;;;;;;6.25;3.85;;;;;;;;;;4908506;29;20059;-80
2023/07/28 02:50:10;;;;;;;4.68;3.80;;;;;;;;;;4925765;29;20048;-80
2023/07/28 02:52:37;;;;;;;4.60;3.40;;;;;;;;;;4911131;29;20055;-80
2023/07/28 02:55:09;;;;;;;4.00;3.55;;;;;;;;;;4920271;29;20056;-80
2023/07/28 02:57:40;;;;;;;5.28;4.00;;;;;;;;;;4941318;29;20054;-80
2023/07/28 03:00:11;;;;;;;4.20;3.80;;;;;;;;;;4919314;29;20056;-80
2023/07/28 03:02:38;;;;;;;4.20;3.60;;;;;;;;;;4915975;29;20047;-80
2023/07/28 03:05:06;;;;;;;3.85;3.53;;;;;;;;;;4904031;29;20047;-80
2023/07/28 03:07:54;;;;;;;4.43;3.38;;;;;;;;;;4920126;29;20054;-80
2023/07/28 03:10:23;;;;;;;4.68;3.78;;;;;;;;;;4923008;29;20048;-79
2023/07/28 03:12:50;;;;;;;5.45;3.75;;;;;;;;;;4928016;29;20052;-79
2023/07/28 03:15:18;;;;;;;14.63;3.65;;;;;;;;;;4961481;29;20045;-79
2023/07/28 03:17:47;;;;;;;7.22;3.70;;;;;;;;;;4943198;29;20050;-79
2023/07/28 03:20:15;;;;;;;4.25;3.38;;;;;;;;;;4932505;29;20045;-79
2023/07/28 03:22:44;;;;;;;5.18;3.90;;;;;;;;;;4934517;29;20062;-80
2023/07/28 03:25:14;;;;;;;4.72;4.28;;;;;;;;;;4929093;29;20513;-79
2023/07/28 03:27:42;;;;;;;4.30;3.83;;;;;;;;;;4936874;29;20060;-80
2023/07/28 03:30:12;;;;;;;4.40;3.67;;;;;;;;;;4917408;29;20044;-79
2023/07/28 03:32:39;;;;;;;5.75;3.92;;;;;;;;;;4937655;29;20068;-79
2023/07/28 03:35:08;;;;;;;4.57;4.00;;;;;;;;;;4928227;29;20063;-80
2023/07/28 03:37:40;;;;;;;;;;;;;;;;;;4946843;29;20115;-80
2023/07/28 03:40:08;;;;;;;6.10;3.33;;;;;;;;;;4913857;29;19927;-80
2023/07/28 03:42:46;;;;;;;8.05;4.03;;;;;;;;;;4906507;29;20055;-80
2023/07/28 03:45:16;;;;;;;4.97;3.65;;;;;;;;;;4892656;29;20059;-79
2023/07/28 03:47:48;;;;;;;3.95;3.53;;;;;;;;;;4914780;29;20059;-79
2023/07/28 03:50:15;;;;;;;4.28;3.88;;;;;;;;;;4935282;29;20055;-79
2023/07/28 03:52:46;;;;;;;7.72;3.95;;;;;;;;;;4903656;29;20056;-79
2023/07/28 03:55:13;;;;;;;4.13;3.55;;;;;;;;;;4900954;29;20055;-80
2023/07/28 03:57:41;;;;;;;10.57;4.68;;;;;;;;;;4901757;29;20289;-79
2023/07/28 04:00:11;;;;;;;5.85;4.18;;;;;;;;;;4912086;29;20391;-79
2023/07/28 04:02:43;;;;;;;5.50;3.33;;;;;;;;;;4921862;29;20062;-80
2023/07/28 04:05:10;;;;;;;10.50;3.60;;;;;;;;;;4922740;29;20059;-80
2023/07/28 04:07:38;;;;;;;4.03;3.47;;;;;;;;;;4923070;29;20074;-80
2023/07/28 04:10:06;;;;;;;4.82;2.78;;;;;;;;;;4937483;29;20046;-80
2023/07/28 04:12:33;;;;;;;4.70;4.05;;;;;;;;;;4936896;29;20040;-80
2023/07/28 04:15:00;;;;;;;8.05;4.30;;;;;;;;;;4923696;29;20052;-80
2023/07/28 04:17:29;;;;;;;5.82;4.13;;;;;;;;;;4908421;29;20052;-80
2023/07/28 04:19:59;;;;;;;6.15;3.85;;;;;;;;;;4907315;29;20044;-80
2023/07/28 04:22:29;;;;;;;6.43;3.97;;;;;;;;;;4906563;29;20414;-80
2023/07/28 04:24:58;;;;;;;6.20;3.67;;;;;;;;;;4913410;29;20051;-79
2023/07/28 04:27:25;;;;;;;4.45;3.65;;;;;;;;;;4921372;29;20043;-79
2023/07/28 04:29:58;;;;;;;7.13;3.93;;;;;;;;;;4931960;29;20039;-79
2023/07/28 04:32:26;;;;;;;5.25;3.58;;;;;;;;;;4921043;29;20442;-79
2023/07/28 04:34:55;;;;;;;5.30;4.10;;;;;;;;;;4915601;29;20071;-80
2023/07/28 04:37:42;;;;;;;6.38;3.10;;;;;;;;;;4920903;29;20054;-80
2023/07/28 04:40:11;;;;;;;4.75;3.92;;;;;;;;;;4916466;29;20055;-80
2023/07/28 04:42:41;;;;;;;10.70;4.78;;;;;;;;;;4914764;29;20059;-80
2023/07/28 04:45:11;;;;;;;4.47;3.85;;;;;;;;;;4914313;29;20556;-79
2023/07/28 04:47:38;;;;;;;4.68;4.18;;;;;;;;;;4900781;29;20051;-79
2023/07/28 04:50:11;;;;;;;4.60;3.10;;;;;;;;;;4918130;29;20044;-79
2023/07/28 04:53:07;;;;;;;4.95;3.72;;;;;;;;;;4853995;29;20060;-79
2023/07/28 04:56:07;;;;;;;5.13;3.38;;;;;;;;;;4912804;29;20417;-79
2023/07/28 04:58:37;;;;;;;4.88;4.05;;;;;;;;;;4922918;29;20056;-79
2023/07/28 05:01:08;;;;;;;3.90;3.03;;;;;;;;;;4901049;29;20055;-79
2023/07/28 05:03:39;;;;;;;3.70;3.30;;;;;;;;;;4909707;29;20047;-80
2023/07/28 05:06:26;;;;;;;3.95;2.97;;;;;;;;;;4902999;29;20055;-79
2023/07/28 05:08:53;;;;;;;5.03;3.15;;;;;;;;;;4935430;29;20066;-80
2023/07/28 05:11:34;;;;;;;6.50;2.45;;;;;;;;;;4907812;29;20046;-80
2023/07/28 05:14:05;;;;;;;3.28;2.65;;;;;;;;;;4936143;29;20051;-80
2023/07/28 05:16:33;;;;;;;3.63;3.00;;;;;;;;;;4933292;29;20052;-80
2023/07/28 05:19:06;;;;;;;8.07;2.72;;;;;;;;;;4923188;29;20058;-80
2023/07/28 05:21:52;;;;;;;4.38;3.25;;;;;;;;;;4935215;29;20048;-80
2023/07/28 05:24:24;;;;;;;14.55;3.25;;;;;;;;;;4901966;29;20066;-80
2023/07/28 05:26:51;;;;;;;3.47;2.90;;;;;;;;;;4923321;29;20058;-80
2023/07/28 05:29:18;;;;;;;3.92;3.22;;;;;;;;;;4900473;29;20052;-80
2023/07/28 05:31:51;;;;;;;5.53;3.38;;;;;;;;;;4899256;29;20387;-80
2023/07/28 05:34:28;;;;;;;2.47;2.28;;;;;;;;;;4921803;29;20050;-80
2023/07/28 05:37:00;;;;;;;5.22;2.28;;;;;;;;;;4921826;29;20062;-80
2023/07/28 05:39:31;;;;;;;4.15;2.08;;;;;;;;;;4901091;29;20062;-80
2023/07/28 05:42:00;;;;;;;2.50;2.00;;;;;;;;;;4918208;29;20056;-79
2023/07/28 05:44:29;;;;;;;3.42;2.08;;;;;;;;;;4902108;29;20509;-79
2023/07/28 05:46:58;;;;;;;3.63;1.80;;;;;;;;;;4907025;29;20052;-80
2023/07/28 05:49:28;;;;;;;6.38;2.05;;;;;;;;;;4902450;29;20059;-79
2023/07/28 05:51:59;;;;;;;2.50;2.08;;;;;;;;;;4898079;29;20064;-80
2023/07/28 05:54:27;;;;;;;2.78;2.55;;;;;;;;;;4916967;29;20066;-80
2023/07/28 05:56:54;;;;;;;3.00;1.75;;;;;;;;;;4912743;29;20502;-79
2023/07/28 05:59:23;;;;;;;2.83;1.48;;;;;;;;;;4932555;29;20056;-80
2023/07/28 06:01:52;;;;;;;2.30;1.27;;;;;;;;;;4898421;29;20056;-80
2023/07/28 06:04:32;;;;;;;2.10;1.65;;;;;;;;;;4913065;29;20512;-80
2023/07/28 06:07:07;;;;;;;2.65;2.45;;;;;;;;;;4905239;29;20056;-80
2023/07/28 06:09:35;;;;;;;2.42;1.70;;;;;;;;;;4903082;29;20409;-80
2023/07/28 06:12:08;;;;;;;2.65;2.45;;;;;;;;;;4936322;29;20062;-80
2023/07/28 06:14:37;;;;;;;3.22;2.33;;;;;;;;;;4899471;29;20055;-80
2023/07/28 06:17:10;;;;;;;3.33;2.72;;;;;;;;;;4915323;29;20044;-80
2023/07/28 06:19:40;;;;;;;2.40;1.98;;;;;;;;;;4926154;29;20050;-80
2023/07/28 06:22:12;;;;;;;3.70;2.22;;;;;;;;;;4919721;29;20058;-80
2023/07/28 06:25:13;;;;;;;3.53;2.55;;;;;;;;;;4893676;29;20052;-80
2023/07/28 06:27:40;;;;;;;2.70;2.50;;;;;;;;;;4940701;23;20051;-79
2023/07/28 06:30:09;;;;;;;4.63;3.10;;;;;;;;;;4949944;29;20513;-79
2023/07/28 06:32:38;;;;;;;2.88;2.58;;;;;;;;;;4934578;28;20054;-79
2023/07/28 06:35:09;;;;;;;3.15;2.35;;;;;;;;;;4939547;28;20440;-79
2023/07/28 06:37:38;;;;;;;3.30;2.28;;;;;;;;;;4938518;29;20039;-79
2023/07/28 06:40:09;;;;;;;3.83;3.08;;;;;;;;;;4923334;29;20055;-79
2023/07/28 06:42:38;;;;;;;5.57;3.60;;;;;;;;;;4924747;29;20493;-79
2023/07/28 06:45:07;;;;;;;3.45;3.15;;;;;;;;;;4925955;28;20055;-79
2023/07/28 06:47:34;;;;;;;4.13;3.28;;;;;;;;;;4925732;29;20043;-79
2023/07/28 06:50:05;;;;;;;4.30;2.97;;;;;;;;;;4933161;29;20066;-79
2023/07/28 06:52:34;;;;;;;3.03;2.75;;;;;;;;;;4945198;28;20050;-79
2023/07/28 06:55:03;;;;;;;3.33;3.03;;;;;;;;;;4923818;29;20055;-79
2023/07/28 06:57:31;;;;;;;3.05;2.67;;;;;;;;;;4936072;28;20377;-79
2023/07/28 07:00:00;;;;;;;4.60;2.58;;;;;;;;;;4938726;29;20066;-79
2023/07/28 07:02:31;;;;;;;6.22;3.25;;;;;;;;;;4936410;28;20476;-79
2023/07/28 07:05:01;;;;;;;3.63;2.20;;;;;;;;;;4936506;29;20520;-79
2023/07/28 07:07:31;;;;;;;3.40;2.35;;;;;;;;;;4915383;29;20611;-79
2023/07/28 07:09:58;;;;;;;5.95;2.80;;;;;;;;;;4936469;29;20046;-79
2023/07/28 07:12:26;;;;;;;3.05;2.42;;;;;;;;;;4951316;28;20462;-79
2023/07/28 07:14:59;;;;;;;2.85;2.53;;;;;;;;;;4934439;28;20520;-79
2023/07/28 07:17:26;;;;;;;3.38;1.88;;;;;;;;;;4922124;28;20059;-79
2023/07/28 07:19:53;;;;;;;3.72;2.60;;;;;;;;;;4932488;29;20060;-79
2023/07/28 07:22:23;;;;;;;3.20;2.10;;;;;;;;;;4953503;28;20090;-79
2023/07/28 07:24:53;;;;;;;3.15;2.60;;;;;;;;;;4919804;28;20375;-81
2023/07/28 07:27:20;;;;;;;2.60;2.40;;;;;;;;;;4951566;28;20527;-79
2023/07/28 07:29:51;;;;;;;2.17;1.70;;;;;;;;;;4931951;29;20533;-79
2023/07/28 07:32:18;;;;;;;3.25;2.33;;;;;;;;;;4941616;28;20043;-79
2023/07/28 07:34:45;;;;;;;2.72;2.53;;;;;;;;;;4956733;28;20521;-79
2023/07/28 07:37:13;;;;;;;2.10;1.85;;;;;;;;;;4940002;28;20051;-79
2023/07/28 07:39:43;;;;;;;2.80;2.22;;;;;;;;;;4929582;29;20047;-79
2023/07/28 07:42:10;;;;;;;2.20;2.00;;;;;;;;;;4938984;28;20054;-79
2023/07/28 07:44:38;;;;;;;9.65;2.45;;;;;;;;;;4957178;28;20062;-79
2023/07/28 07:47:14;;;;;;;2.10;1.85;;;;;;;;;;4925848;28;20046;-79
2023/07/28 07:49:42;;;;;;;2.22;2.00;;;;;;;;;;4939413;29;20059;-79
2023/07/28 07:52:11;;;;;;;1.88;1.48;;;;;;;;;;4952369;28;20131;-79
2023/07/28 07:54:39;;;;;;;2.15;1.77;;;;;;;;;;4923685;29;20058;-79
2023/07/28 07:57:07;;;;;;;3.17;2.10;;;;;;;;;;4923582;28;20055;-79
2023/07/28 07:59:34;;;;;;;2.30;1.88;;;;;;;;;;4955001;28;20043;-79
2023/07/28 08:02:02;;;;;;;3.03;1.90;;;;;;;;;;4938695;29;20058;-79
2023/07/28 08:04:33;;;;;;;2.25;2.05;;;;;;;;;;4939432;29;20519;-79
2023/07/28 08:07:04;;;;;;;2.65;1.30;;;;;;;;;;4921783;29;20414;-79
2023/07/28 08:09:37;;;;;;;2.05;1.60;;;;;;;;;;4942022;29;20109;-79
2023/07/28 08:12:05;;;;;;;1.95;1.40;;;;;;;;;;4933341;29;20050;-79
2023/07/28 08:14:36;;;;;;;3.13;2.83;;;;;;;;;;4932143;29;20051;-79
2023/07/28 08:17:06;;;;;;;2.05;1.85;;;;;;;;;;4918107;28;20070;-79
2023/07/28 08:19:34;;;;;;;2.45;1.65;;;;;;;;;;4935051;29;20445;-79
2023/07/28 08:22:03;;;;;;;2.58;1.95;;;;;;;;;;4934775;29;20047;-79
2023/07/28 08:24:37;;;;;;;5.53;1.80;;;;;;;;;;4934273;28;20528;-77
2023/07/28 08:27:05;;;;;;;2.65;1.90;;;;;;;;;;4930552;29;20058;-77
2023/07/28 08:29:33;;;;;;;2.20;2.00;;;;;;;;;;4924727;29;20098;-78
2023/07/28 08:32:00;;;;;;;2.92;2.20;;;;;;;;;;4928770;29;20047;-78
2023/07/28 08:34:30;;;;;;;3.05;2.22;;;;;;;;;;4908847;29;20047;-77
2023/07/28 08:37:00;;;;;;;4.05;1.92;;;;;;;;;;4909397;29;20498;-77
2023/07/28 08:39:30;;;;;;;3.10;1.75;;;;;;;;;;4927647;29;20047;-78
2023/07/28 08:42:01;;;;;;;2.92;2.05;;;;;;;;;;4929648;29;20043;-78
2023/07/28 08:44:30;;;;;;;2.70;1.90;;;;;;;;;;4925696;29;20052;-78
2023/07/28 08:47:02;;;;;;;3.30;2.20;;;;;;;;;;4916570;29;20067;-78
2023/07/28 08:49:32;;;;;;;3.17;2.05;;;;;;;;;;4931201;29;20050;-78
2023/07/28 08:52:02;;;;;;;3.38;3.03;;;;;;;;;;4909544;29;20066;-78
2023/07/28 08:54:32;;;;;;;2.25;1.80;;;;;;;;;;4921784;29;20050;-78
2023/07/28 08:57:01;;;;;;;2.80;2.28;;;;;;;;;;4907916;29;20055;-78
2023/07/28 08:59:30;;;;;;;6.10;2.00;;;;;;;;;;4908148;29;20051;-78
2023/07/28 09:01:59;;;;;;;2.22;2.03;;;;;;;;;;4906493;29;20048;-78
2023/07/28 09:04:29;;;;;;;3.78;2.30;;;;;;;;;;4911556;29;20062;-78
2023/07/28 09:06:56;;;;;;;2.97;2.08;;;;;;;;;;4930860;29;20071;-78
2023/07/28 09:09:25;;;;;;;2.30;1.70;;;;;;;;;;4897668;29;20044;-78
2023/07/28 09:11:58;;;;;;;3.95;1.77;;;;;;;;;;4931740;29;20044;-78
2023/07/28 09:14:25;;;;;;;2.75;1.85;;;;;;;;;;4930613;29;20434;-78
2023/07/28 09:16:53;;;;;;;2.20;2.00;;;;;;;;;;4931802;29;20391;-78
2023/07/28 09:19:23;;;;;;;4.18;2.17;;;;;;;;;;4898212;29;20055;-78
2023/07/28 09:21:59;;;;;;;1.97;1.80;;;;;;;;;;4913463;29;20075;-78
2023/07/28 09:24:33;;;;;;;3.35;1.58;;;;;;;;;;4904708;29;20334;-78
2023/07/28 09:27:03;;;;;;;1.95;1.75;;;;;;;;;;4923418;29;20421;-78
2023/07/28 09:29:35;;;;;;;2.13;1.80;;;;;;;;;;4945580;28;20054;-78
2023/07/28 09:32:07;;;;;;;2.38;1.95;;;;;;;;;;4934117;29;20050;-78
2023/07/28 09:34:34;;;;;;;1.90;1.45;;;;;;;;;;4933869;29;20062;-78
2023/07/28 09:37:06;;;;;;;3.13;1.92;;;;;;;;;;4933243;28;20063;-78
2023/07/28 09:39:38;;;;;;;3.47;2.33;;;;;;;;;;4926770;29;20059;-78
2023/07/28 09:42:09;;;;;;;3.58;1.98;;;;;;;;;;4924105;29;20055;-78
2023/07/28 09:44:37;;;;;;;2.10;1.50;;;;;;;;;;4922131;29;20062;-78
2023/07/28 09:47:07;;;;;;;2.70;1.33;;;;;;;;;;4913845;28;20054;-78
2023/07/28 09:49:37;;;;;;;3.20;1.70;;;;;;;;;;4924679;29;20047;-78
2023/07/28 09:52:09;;;;;;;2.05;1.40;;;;;;;;;;4928196;29;20052;-78
2023/07/28 09:54:40;;;;;;;3.90;2.25;;;;;;;;;;4931561;29;20058;-78
2023/07/28 09:57:13;;;;;;;1.45;1.27;;;;;;;;;;4931283;28;20059;-78
2023/07/28 09:59:43;;;;;;;3.65;2.63;;;;;;;;;;4932025;29;20055;-78
2023/07/28 10:02:15;;;;;;;2.15;1.65;;;;;;;;;;4944704;28;20677;-78
2023/07/28 10:04:43;;;;;;;1.35;1.25;;;;;;;;;;4930798;29;20521;-78
2023/07/28 10:07:10;;;;;;;2.30;1.38;;;;;;;;;;4915460;28;20058;-78
2023/07/28 10:09:41;;;;;;;1.83;1.20;;;;;;;;;;4950299;28;20102;-78
2023/07/28 10:12:18;;;;;;;1.70;1.05;;;;;;;;;;4921228;29;20062;-79
2023/07/28 10:14:46;;;;;;;2.95;1.65;;;;;;;;;;4945189;28;20394;-79
2023/07/28 10:17:17;;;;;;;2.42;2.03;;;;;;;;;;4936616;28;20497;-79
2023/07/28 10:19:44;;;;;;;2.40;1.83;;;;;;;;;;4936820;28;20055;-79
2023/07/28 10:22:12;;;;;;;1.95;1.27;;;;;;;;;;4916397;29;20062;-79
2023/07/28 10:24:55;;;;;;;3.38;2.05;;;;;;;;;;4935072;29;20047;-79
2023/07/28 10:27:32;;;;;;;2.10;1.58;;;;;;;;;;4920568;28;20132;-79
2023/07/28 10:30:01;;;;;;;1.98;1.50;;;;;;;;;;4953857;28;20405;-79
2023/07/28 10:32:29;;;;;;;1.85;1.05;;;;;;;;;;4934801;29;20513;-79
2023/07/28 10:35:02;;;;;;;1.75;1.60;;;;;;;;;;4916275;29;20047;-78
2023/07/28 10:37:29;;;;;;;2.33;1.60;;;;;;;;;;4916966;29;20073;-78
2023/07/28 10:40:26;;;;;;;1.98;1.70;;;;;;;;;;4936714;29;20051;-78
2023/07/28 10:42:57;;;;;;;3.03;1.55;;;;;;;;;;4928966;28;20524;-78
2023/07/28 10:45:29;;;;;;;2.30;1.83;;;;;;;;;;4938799;29;20063;-79
2023/07/28 10:47:59;;;;;;;1.67;1.58;;;;;;;;;;4925488;29;20410;-79
2023/07/28 10:50:28;;;;;;;1.50;1.40;;;;;;;;;;4961056;28;20047;-79
2023/07/28 10:52:56;;;;;;;1.95;1.65;;;;;;;;;;4916935;29;20072;-79
2023/07/28 10:55:28;;;;;;;3.33;2.15;;;;;;;;;;4924836;28;20054;-79
2023/07/28 10:57:58;;;;;;;2.58;1.52;;;;;;;;;;4936752;29;20063;-79
2023/07/28 11:00:25;;;;;;;2.63;1.63;;;;;;;;;;4965673;28;20128;-79
2023/07/28 11:02:54;;;;;;;1.83;1.42;;;;;;;;;;4944633;29;20046;-79
2023/07/28 11:05:23;;;;;;;1.55;1.27;;;;;;;;;;4927512;28;20059;-79
2023/07/28 11:07:50;;;;;;;2.95;1.77;;;;;;;;;;4919809;29;20055;-79
2023/07/28 11:10:20;;;;;;;2.28;1.75;;;;;;;;;;4924641;29;20062;-79
2023/07/28 11:12:50;;;;;;;1.77;1.55;;;;;;;;;;4927636;29;20054;-79
2023/07/28 11:15:19;;;;;;;2.10;1.50;;;;;;;;;;4942140;28;20058;-79
2023/07/28 11:17:50;;;;;;;1.75;1.65;;;;;;;;;;4934241;29;20051;-79
2023/07/28 11:20:23;;;;;;;1.75;1.50;;;;;;;;;;4941243;28;20066;-79
2023/07/28 11:22:54;;;;;;;4.90;1.83;;;;;;;;;;4922636;29;20059;-79
2023/07/28 11:25:21;;;;;;;2.05;1.48;;;;;;;;;;4958489;28;20511;-79
2023/07/28 11:27:51;;;;;;;1.63;1.25;;;;;;;;;;4942507;29;20054;-79
2023/07/28 11:30:19;;;;;;;2.47;1.52;;;;;;;;;;4943336;28;20058;-79
2023/07/28 11:32:48;;;;;;;1.50;1.35;;;;;;;;;;4940780;29;20043;-79
2023/07/28 11:35:17;;;;;;;2.22;1.65;;;;;;;;;;4940449;28;20066;-79
2023/07/28 11:37:47;;;;;;;1.75;1.60;;;;;;;;;;4925331;29;20069;-79
2023/07/28 11:40:18;;;;;;;1.95;1.73;;;;;;;;;;4939131;29;20051;-79
2023/07/28 11:42:46;;;;;;;4.32;2.38;;;;;;;;;;4935980;29;20055;-79
2023/07/28 11:45:17;;;;;;;2.55;1.00;;;;;;;;;;4937741;28;20055;-79
2023/07/28 11:47:55;;;;;;;2.10;1.42;;;;;;;;;;4928210;29;20056;-79
2023/07/28 11:50:24;;;;;;;1.80;1.60;;;;;;;;;;4943595;29;20062;-79
2023/07/28 11:52:51;;;;;;;2.10;1.80;;;;;;;;;;4924473;29;20058;-79
2023/07/28 11:55:22;;;;;;;9.68;2.67;;;;;;;;;;4932866;29;20069;-79
2023/07/28 11:57:53;;;;;;;2.88;1.52;;;;;;;;;;4920006;29;20059;-79
2023/07/28 12:00:27;;;;;;;2.53;1.95;;;;;;;;;;4941071;29;20058;-79
2023/07/28 12:03:05;;;;;;;3.28;1.75;;;;;;;;;;4924956;29;20059;-79
2023/07/28 12:05:35;;;;;;;2.60;1.63;;;;;;;;;;4921722;29;20047;-79
2023/07/28 12:08:07;;;;;;;3.03;1.90;;;;;;;;;;4936530;28;20418;-79
2023/07/28 12:10:37;;;;;;;1.60;1.40;;;;;;;;;;4936621;29;20051;-79
2023/07/28 12:13:05;;;;;;;2.50;1.35;;;;;;;;;;4933665;28;20410;-79
2023/07/28 12:15:34;;;;;;;1.48;1.08;;;;;;;;;;4927186;29;20058;-79
2023/07/28 12:18:08;;;;;;;1.67;1.10;;;;;;;;;;4963368;29;20054;-79
2023/07/28 12:20:36;;;;;;;2.15;1.27;;;;;;;;;;4938999;29;20051;-79
2023/07/28 12:23:04;;;;;;;2.92;1.50;;;;;;;;;;4930966;29;20054;-79
2023/07/28 12:25:31;;;;;;;1.98;1.77;;;;;;;;;;4928796;29;20138;-79
2023/07/28 12:27:58;;;;;;;1.98;1.50;;;;;;;;;;4918600;29;20062;-79
2023/07/28 12:30:28;;;;;;;1.73;1.10;;;;;;;;;;4944250;28;20072;-79
2023/07/28 12:32:57;;;;;;;2.55;1.45;;;;;;;;;;4941158;29;20055;-79
2023/07/28 12:35:30;;;;;;;5.72;1.45;;;;;;;;;;4933693;28;20066;-81
2023/07/28 12:38:00;;;;;;;2.25;1.40;;;;;;;;;;4948405;28;20050;-79
2023/07/28 12:40:29;;;;;;;2.97;1.65;;;;;;;;;;4938765;29;20054;-78
2023/07/28 12:42:56;;;;;;;3.28;1.50;;;;;;;;;;4916072;29;20047;-79
2023/07/28 12:45:25;;;;;;;1.27;1.13;;;;;;;;;;4923703;28;20055;-79
2023/07/28 12:47:54;;;;;;;3.10;1.60;;;;;;;;;;4925572;29;20063;-80
2023/07/28 12:50:25;;;;;;;1.67;1.58;;;;;;;;;;4929728;29;20059;-79
2023/07/28 12:52:55;;;;;;;1.75;1.58;;;;;;;;;;4928098;28;20425;-80
2023/07/28 12:55:27;;;;;;;3.20;2.22;;;;;;;;;;4929834;29;20063;-80
2023/07/28 12:57:58;;;;;;;2.05;1.27;;;;;;;;;;4949564;28;20050;-79
2023/07/28 13:00:25;;;;;;;2.75;1.27;;;;;;;;;;4945374;29;20055;-79
2023/07/28 13:03:07;;;;;;;2.25;1.25;;;;;;;;;;4961823;28;20051;-79
2023/07/28 13:05:36;;;;;;;1.80;1.15;;;;;;;;;;4928806;28;20044;-79
2023/07/28 13:08:03;;;;;;;3.03;1.92;;;;;;;;;;4952752;28;20055;-79
2023/07/28 13:10:30;;;;;;;3.97;2.22;;;;;;;;;;4928845;28;20066;-79
2023/07/28 13:13:00;;;;;;;2.22;1.67;;;;;;;;;;4926977;29;20059;-79
2023/07/28 13:15:27;;;;;;;1.90;1.67;;;;;;;;;;4935306;29;20047;-79
2023/07/28 13:17:57;;;;;;;5.28;2.17;;;;;;;;;;4953191;28;20127;-79
2023/07/28 13:20:24;;;;;;;1.73;1.63;;;;;;;;;;4929021;29;20379;-79
2023/07/28 13:22:53;;;;;;;4.40;1.77;;;;;;;;;;4938973;29;20058;-79
2023/07/28 13:25:20;;;;;;;5.22;2.03;;;;;;;;;;4925547;28;20039;-79
2023/07/28 13:27:50;;;;;;;1.80;1.30;;;;;;;;;;4946491;29;20429;-79
2023/07/28 13:30:17;;;;;;;2.35;1.65;;;;;;;;;;4944204;29;20043;-79
2023/07/28 13:32:47;;;;;;;3.60;1.88;;;;;;;;;;4914801;29;20055;-78
2023/07/28 13:35:14;;;;;;;2.55;1.85;;;;;;;;;;4923916;29;20414;-79
2023/07/28 13:37:44;;;;;;;1.80;1.60;;;;;;;;;;4907556;29;20063;-79
2023/07/28 13:40:13;;;;;;;2.67;1.90;;;;;;;;;;4930377;29;20383;-79
2023/07/28 13:42:40;;;;;;;5.32;1.90;;;;;;;;;;4936588;29;20055;-79
2023/07/28 13:45:10;;;;;;;2.97;1.63;;;;;;;;;;4906920;29;20046;-79
2023/07/28 13:47:44;;;;;;;3.55;1.90;;;;;;;;;;4901945;29;20501;-79
2023/07/28 13:50:11;;;;;;;2.92;2.03;;;;;;;;;;4907334;29;20497;-79
2023/07/28 13:52:38;;;;;;;2.00;1.58;;;;;;;;;;4913072;29;20062;-79
2023/07/28 13:55:06;;;;;;;3.38;1.60;;;;;;;;;;4915746;29;20602;-79
2023/07/28 13:57:37;;;;;;;2.67;1.95;;;;;;;;;;4937543;29;20054;-79
2023/07/28 14:00:08;;;;;;;2.78;1.83;;;;;;;;;;4929376;29;20497;-79
2023/07/28 14:02:40;;;;;;;2.20;1.83;;;;;;;;;;4934991;29;20063;-79
2023/07/28 14:05:09;;;;;;;1.80;1.70;;;;;;;;;;4935649;29;20114;-79
2023/07/28 14:07:36;;;;;;;2.67;1.85;;;;;;;;;;4920057;29;20060;-79
2023/07/28 14:10:05;;;;;;;1.85;1.42;;;;;;;;;;4935223;29;20055;-78
2023/07/28 14:12:34;;;;;;;3.17;2.28;;;;;;;;;;4934400;29;20517;-79
2023/07/28 14:15:07;;;;;;;2.22;1.98;;;;;;;;;;4935654;29;20449;-79
2023/07/28 14:17:34;;;;;;;5.30;1.60;;;;;;;;;;4906013;29;20063;-79
2023/07/28 14:20:06;;;;;;;2.38;1.63;;;;;;;;;;4937725;29;20055;-79
2023/07/28 14:22:33;;;;;;;1.73;1.30;;;;;;;;;;4919645;29;20055;-79
2023/07/28 14:25:00;;;;;;;2.13;1.83;;;;;;;;;;4919076;29;20052;-79
2023/07/28 14:27:30;;;;;;;2.30;2.10;;;;;;;;;;4919047;29;20502;-79
2023/07/28 14:29:57;;;;;;;2.72;1.48;;;;;;;;;;4897768;29;20067;-79
2023/07/28 14:32:25;;;;;;;3.72;1.65;;;;;;;;;;4922238;29;20048;-78
2023/07/28 14:34:53;;;;;;;2.63;2.30;;;;;;;;;;4937473;29;20055;-80
2023/07/28 14:37:22;;;;;;;1.95;1.27;;;;;;;;;;4930303;29;20052;-78
2023/07/28 14:39:50;;;;;;;3.72;1.58;;;;;;;;;;4935046;29;20071;-78
2023/07/28 14:42:17;;;;;;;2.13;1.42;;;;;;;;;;4920849;29;20395;-79
2023/07/28 14:44:44;;;;;;;2.25;1.73;;;;;;;;;;4908663;29;20422;-79
2023/07/28 14:47:14;;;;;;;3.20;1.88;;;;;;;;;;4929583;29;20532;-78
2023/07/28 14:49:45;;;;;;;2.13;1.55;;;;;;;;;;4922275;29;20055;-79
2023/07/28 14:52:14;;;;;;;2.13;1.58;;;;;;;;;;4935638;29;20055;-79
2023/07/28 14:54:42;;;;;;;3.75;2.20;;;;;;;;;;4919635;29;20047;-79
2023/07/28 14:57:14;;;;;;;2.45;1.95;;;;;;;;;;4947960;29;20051;-79
2023/07/28 14:59:44;;;;;;;2.42;1.80;;;;;;;;;;4933129;29;20495;-79